x

Cape Cleare - 17 Nm South Of Montague Is, Ak (46076) Wave Buoy

2:50pm - Wed 2nd Sep 2015 All times are AKDT. -8 hours from GMT.

  • Sig Wave height 1.6ft
  • Swell Direction
  • Peak Period 14s
  • Average Period 5s
  • Wind
    2mph, 4mph gusts
  • Sea Temp 56°f
  • Air Temp 56°f
  • Sea Pressure 1016.3mb
  • Cape Cleare - 17 Nm South Of Montague Is,  Ak
  • Cape Cleare - 17 Nm South Of Montague Is,  Ak

More Historic Weather Station data

Upgrade to MSW Pro to gain access to the past 30 days of data for over 8000 Wavebouys and Weather Stations around the globe.

Join Pro

Comparision Forecast

View Surf forecast
   
Wed 09/02 2:50pm 1.6ft 14s 5s 2 4 mph 1016.3mb 56f 56f
1:50pm 2ft 14s 6s 9
mph
1016.5mb 56f 56f
12:50pm 2.5ft 14s 6s 7 9 mph 1016.3mb 56f 56f
11:50am 2ft 14s 6s 9
mph
1016.5mb 56f 56f
10:50am 2ft 15s 7s 7
mph
1016.3mb 56f 56f
9:50am 2.5ft 14s 7s 7
mph
1016mb 56f 55f
8:50am 2ft 14s 7s 2 4 mph 1016mb 56f 55f
7:50am 2ft 15s 6s 4 7 mph 1015.7mb 55f 55f
6:50am 2ft 15s 6s 2 4 mph 1015.4mb 55f 55f
5:50am 2.5ft 14s 6s 4
mph
1015.5mb 55f 55f
4:50am 2.5ft 6s 6s 4
mph
1015.7mb 56f 55f
3:50am 3ft 14s 6s 2
mph
1015.4mb 56f 55f
2:50am 2.5ft 6s 6s 4
mph
1015.1mb 55f 56f
1:50am 2.5ft 14s 6s 7
mph
1015.1mb 56f 56f
12:50am 2.5ft 6s 6s 9 11 mph 1015mb 56f 56f
Tue 09/01 11:50pm 2.5ft 14s 6s 9 11 mph 1015.1mb 56f 56f
10:50pm 3ft 14s 6s 9 11 mph 1014.9mb 56f 56f
9:50pm 3ft 7s 6s 9 11 mph 1014.6mb 56f 56f
8:50pm 3ft 7s 6s 7 11 mph 1014.2mb 56f 57f
7:50pm 3ft 8s 6s 11
mph
1013.7mb 56f 57f
6:50pm 3ft 6s 5s 7 9 mph 1013.3mb 56f 58f
5:50pm 3ft 15s 5s 9 11 mph 1013mb 56f 57f
4:50pm 3.5ft 15s 5s 11
mph
1012.8mb 56f 56f
3:50pm 3.5ft 7s 6s 11 13 mph 1012.7mb 56f 56f
2:50pm 4ft 7s 6s 11 13 mph 1012.6mb 56f 55f
1:50pm 3.5ft 8s 6s 11 13 mph 1012.4mb 56f 56f
12:50pm 3.5ft 7s 6s 13 18 mph 1012.3mb 56f 56f
11:50am 3.5ft 8s 6s 16 18 mph 1012mb 56f 56f
10:50am 3.5ft 8s 6s 16 20 mph 1011.8mb 56f 56f
9:50am 3ft 8s 6s 11 13 mph 1011.8mb 56f 55f
8:50am 3.5ft 15s 5s 11
mph
1011.4mb 56f 56f
7:50am 3.5ft 6s 5s 11 13 mph 1010.8mb 56f 56f
6:50am 3.5ft 7s 5s 9 11 mph 1010.2mb 56f 56f
5:50am 4.5ft 5s 5s 9 13 mph 1009.7mb 56f 56f
4:50am 4.5ft 6s 5s 9 11 mph 1009.2mb 56f 57f
3:50am 4.5ft 7s 6s 4 7 mph 1008.8mb 56f 56f
2:50am 4ft 7s 5s 2
mph
1008.4mb 56f 56f
1:50am 3.5ft 7s 6s 7
mph
1007.8mb 56f 56f
12:50am 4.5ft 8s 6s 4 7 mph 1007.4mb 56f 56f
Mon 08/31 11:50pm 4ft 8s 6s 4 7 mph 1007mb 56f 57f
10:50pm 4.5ft 8s 6s 9 11 mph 1006.5mb 56f 57f
9:50pm 4.5ft 5s 6s 11 13 mph 1005.8mb 56f 57f
8:50pm 4.5ft 6s 5s 11 13 mph 1005.1mb 56f 57f
7:50pm 5ft 5s 5s 13 16 mph 1004.2mb 56f 57f
6:50pm 5.5ft 7s 5s 16 20 mph 1003.4mb 56f 58f
5:50pm 6ft 6s 5s 20 22 mph 1002.4mb 56f 57f
4:50pm 6.5ft 6s 5s 20 22 mph 1001.6mb 56f 57f
3:50pm 6ft 6s 5s 18 20 mph 1000.6mb 56f 56f
2:50pm 6ft 8s 5s 18 22 mph 999.6mb 56f 55f
1:50pm 5.5ft 9s 6s 20 25 mph 998.6mb 56f 55f
12:50pm 6ft 8s 6s 18 22 mph 997.9mb 56f 54f
11:50am 6ft 9s 6s 18 25 mph 996.7mb 56f 53f
10:50am 5.5ft 7s 6s 20 25 mph 995.8mb 56f 53f
9:50am 6ft 7s 6s 22 27 mph 994.9mb 56f 53f
8:50am 6ft 8s 6s 20 25 mph 994.2mb 56f 53f
7:50am 7.5ft 7s 6s 25 31 mph 993.4mb 56f 52f
6:50am 7.5ft 6s 5s 27 31 mph 992.9mb 56f 52f
5:50am 8ft 6s 5s 29 36 mph 992.6mb 56f 52f
4:50am 8ft 6s 5s 29 36 mph 992.4mb 56f 52f
3:50am 8ft 6s 6s 29 36 mph 992.4mb 56f 53f
2:50am 7.5ft 7s 6s 29 36 mph 992.5mb 56f 54f
1:50am 8ft 7s 6s 25 29 mph 992.2mb 57f 55f
12:50am 6.5ft 7s 6s 25 29 mph 992mb 56f 55f
Sun 08/30 11:50pm 7ft 9s 6s 22 27 mph 992mb 56f 55f
10:50pm 7ft 9s 7s 22 27 mph 991.8mb 57f 56f
9:50pm 6.5ft 8s 7s 20 25 mph 991.5mb 57f 56f
8:50pm 6ft 7s 6s 18 22 mph 991.2mb 57f 56f
7:50pm 7ft 6s 6s 18 22 mph 990.7mb 57f 57f
6:50pm 6.5ft 6s 5s 18 22 mph 990.4mb 57f 57f
5:50pm 7ft 6s 5s 20 25 mph 990mb 57f 56f
4:50pm 7.5ft 6s 5s 25 29 mph 989.3mb 57f 56f
3:50pm 8ft 7s 6s 22 25 mph 988.9mb 57f 56f
2:50pm 8ft 7s 6s 22 27 mph 988.7mb 57f 55f
1:50pm 8ft 7s 6s 20 25 mph 988.3mb 57f 55f
12:50pm 8ft 7s 6s 22 25 mph 987.9mb 57f 55f
11:50am 7ft 7s 6s 22 27 mph 987.4mb 57f 55f
10:50am 5ft 7s 6s 18 22 mph 987.4mb 57f 54f
9:50am 5ft 7s 6s 18 22 mph 987.1mb 56f 54f
8:50am 4.5ft 6s 5s 20 25 mph 986.8mb 57f 54f
7:50am 4.5ft 6s 5s 22 29 mph 986.5mb 57f 54f
6:50am 4.5ft 5s 5s 18 20 mph 986.6mb 57f 55f
5:50am 5ft 5s 5s 20 25 mph 986.6mb 57f 55f
4:50am 5ft 5s 4s 20 25 mph 986.6mb 57f 55f
3:50am 3.5ft 5s 4s 18 22 mph 986.6mb 57f 55f
2:50am 3ft 5s 4s 16 18 mph 986.8mb 57f 55f
1:50am 2.5ft 6s 5s 16 20 mph 987mb 57f 55f
12:50am 3ft 6s 5s 11 13 mph 987.5mb 57f 55f
Sat 08/29 11:50pm 2.5ft 6s 5s 9 11 mph 988.1mb 57f 55f